sensor_id;sensor_type;location;lat;lon;timestamp;temperature;humidity
68450;SHT30;67758;39.572;2.652;2024-01-30T00:00:08;12.67;87.19
68450;SHT30;67758;39.572;2.652;2024-01-30T00:02:34;12.63;87.28
68450;SHT30;67758;39.572;2.652;2024-01-30T00:05:00;12.57;87.44
68450;SHT30;67758;39.572;2.652;2024-01-30T00:07:26;12.52;87.53
68450;SHT30;67758;39.572;2.652;2024-01-30T00:09:51;12.52;87.66
68450;SHT30;67758;39.572;2.652;2024-01-30T00:12:17;12.48;87.68
68450;SHT30;67758;39.572;2.652;2024-01-30T00:14:42;12.45;87.73
68450;SHT30;67758;39.572;2.652;2024-01-30T00:17:11;12.46;87.63
68450;SHT30;67758;39.572;2.652;2024-01-30T00:19:36;12.45;87.81
68450;SHT30;67758;39.572;2.652;2024-01-30T00:22:02;12.40;87.69
68450;SHT30;67758;39.572;2.652;2024-01-30T00:24:27;12.39;87.69
68450;SHT30;67758;39.572;2.652;2024-01-30T00:26:53;12.38;87.62
68450;SHT30;67758;39.572;2.652;2024-01-30T00:29:19;12.40;87.66
68450;SHT30;67758;39.572;2.652;2024-01-30T00:31:45;12.39;87.56
68450;SHT30;67758;39.572;2.652;2024-01-30T00:34:11;12.38;87.50
68450;SHT30;67758;39.572;2.652;2024-01-30T00:36:39;12.43;87.41
68450;SHT30;67758;39.572;2.652;2024-01-30T00:39:05;12.40;87.22
68450;SHT30;67758;39.572;2.652;2024-01-30T00:41:33;12.36;87.27
68450;SHT30;67758;39.572;2.652;2024-01-30T00:43:59;12.39;87.13
68450;SHT30;67758;39.572;2.652;2024-01-30T00:46:24;12.32;87.17
68450;SHT30;67758;39.572;2.652;2024-01-30T00:48:50;12.29;87.32
68450;SHT30;67758;39.572;2.652;2024-01-30T00:51:15;12.28;87.32
68450;SHT30;67758;39.572;2.652;2024-01-30T00:53:45;12.26;87.21
68450;SHT30;67758;39.572;2.652;2024-01-30T00:56:10;12.35;86.99
68450;SHT30;67758;39.572;2.652;2024-01-30T00:58:36;12.33;86.69
68450;SHT30;67758;39.572;2.652;2024-01-30T01:01:01;12.38;86.57
68450;SHT30;67758;39.572;2.652;2024-01-30T01:03:27;12.40;86.48
68450;SHT30;67758;39.572;2.652;2024-01-30T01:05:53;12.39;86.32
68450;SHT30;67758;39.572;2.652;2024-01-30T01:08:18;12.38;86.23
68450;SHT30;67758;39.572;2.652;2024-01-30T01:10:45;12.35;86.28
68450;SHT30;67758;39.572;2.652;2024-01-30T01:13:11;12.42;86.16
68450;SHT30;67758;39.572;2.652;2024-01-30T01:15:36;12.45;86.17
68450;SHT30;67758;39.572;2.652;2024-01-30T01:18:02;12.46;85.95
68450;SHT30;67758;39.572;2.652;2024-01-30T01:20:28;12.46;85.75
68450;SHT30;67758;39.572;2.652;2024-01-30T01:22:54;12.45;85.75
68450;SHT30;67758;39.572;2.652;2024-01-30T01:25:19;12.50;85.68
68450;SHT30;67758;39.572;2.652;2024-01-30T01:27:45;12.45;85.63
68450;SHT30;67758;39.572;2.652;2024-01-30T01:30:16;12.42;85.61
68450;SHT30;67758;39.572;2.652;2024-01-30T01:32:50;12.39;85.68
68450;SHT30;67758;39.572;2.652;2024-01-30T01:35:23;12.43;85.60
68450;SHT30;67758;39.572;2.652;2024-01-30T01:37:53;12.46;85.55
68450;SHT30;67758;39.572;2.652;2024-01-30T01:40:25;12.49;85.23
68450;SHT30;67758;39.572;2.652;2024-01-30T01:42:51;12.43;85.22
68450;SHT30;67758;39.572;2.652;2024-01-30T01:45:18;12.49;85.19
68450;SHT30;67758;39.572;2.652;2024-01-30T01:47:45;12.39;85.21
68450;SHT30;67758;39.572;2.652;2024-01-30T01:50:13;12.43;85.31
68450;SHT30;67758;39.572;2.652;2024-01-30T01:52:40;12.40;85.28
68450;SHT30;67758;39.572;2.652;2024-01-30T01:55:07;12.43;85.46
68450;SHT30;67758;39.572;2.652;2024-01-30T01:57:33;12.42;85.31
68450;SHT30;67758;39.572;2.652;2024-01-30T02:00:01;12.43;85.27
68450;SHT30;67758;39.572;2.652;2024-01-30T02:02:30;12.46;85.24
68450;SHT30;67758;39.572;2.652;2024-01-30T02:04:59;12.45;85.32
68450;SHT30;67758;39.572;2.652;2024-01-30T02:07:26;12.46;85.29
68450;SHT30;67758;39.572;2.652;2024-01-30T02:09:53;12.48;85.21
68450;SHT30;67758;39.572;2.652;2024-01-30T02:12:18;12.48;85.26
68450;SHT30;67758;39.572;2.652;2024-01-30T02:14:45;12.45;85.22
68450;SHT30;67758;39.572;2.652;2024-01-30T02:17:12;12.39;85.34
68450;SHT30;67758;39.572;2.652;2024-01-30T02:19:38;12.45;85.55
68450;SHT30;67758;39.572;2.652;2024-01-30T02:22:04;12.42;85.54
68450;SHT30;67758;39.572;2.652;2024-01-30T02:24:30;12.39;85.61
68450;SHT30;67758;39.572;2.652;2024-01-30T02:26:55;12.28;85.89
68450;SHT30;67758;39.572;2.652;2024-01-30T02:29:21;12.28;86.00
68450;SHT30;67758;39.572;2.652;2024-01-30T02:31:47;12.26;86.14
68450;SHT30;67758;39.572;2.652;2024-01-30T02:34:13;12.22;86.28
68450;SHT30;67758;39.572;2.652;2024-01-30T02:36:42;12.15;86.45
68450;SHT30;67758;39.572;2.652;2024-01-30T02:39:08;12.11;86.61
68450;SHT30;67758;39.572;2.652;2024-01-30T02:41:33;12.08;86.82
68450;SHT30;67758;39.572;2.652;2024-01-30T02:43:59;12.06;86.92
68450;SHT30;67758;39.572;2.652;2024-01-30T02:46:24;12.06;86.88
68450;SHT30;67758;39.572;2.652;2024-01-30T02:48:50;11.94;87.12
68450;SHT30;67758;39.572;2.652;2024-01-30T02:51:16;11.82;87.46
68450;SHT30;67758;39.572;2.652;2024-01-30T02:53:42;11.78;87.77
68450;SHT30;67758;39.572;2.652;2024-01-30T02:56:07;11.67;87.98
68450;SHT30;67758;39.572;2.652;2024-01-30T02:58:38;11.68;88.02
68450;SHT30;67758;39.572;2.652;2024-01-30T03:01:04;11.60;88.16
68450;SHT30;67758;39.572;2.652;2024-01-30T03:03:30;11.51;88.32
68450;SHT30;67758;39.572;2.652;2024-01-30T03:05:56;11.46;88.50
68450;SHT30;67758;39.572;2.652;2024-01-30T03:08:22;11.37;88.59
68450;SHT30;67758;39.572;2.652;2024-01-30T03:10:49;11.33;88.68
68450;SHT30;67758;39.572;2.652;2024-01-30T03:13:14;11.30;88.90
68450;SHT30;67758;39.572;2.652;2024-01-30T03:15:40;11.23;89.01
68450;SHT30;67758;39.572;2.652;2024-01-30T03:18:06;11.20;89.10
68450;SHT30;67758;39.572;2.652;2024-01-30T03:20:31;11.17;89.08
68450;SHT30;67758;39.572;2.652;2024-01-30T03:22:59;11.16;89.00
68450;SHT30;67758;39.572;2.652;2024-01-30T03:25:25;11.10;89.12
68450;SHT30;67758;39.572;2.652;2024-01-30T03:27:50;11.07;89.19
68450;SHT30;67758;39.572;2.652;2024-01-30T03:30:16;11.09;89.22
68450;SHT30;67758;39.572;2.652;2024-01-30T03:32:43;11.09;89.16
68450;SHT30;67758;39.572;2.652;2024-01-30T03:35:09;11.09;88.98
68450;SHT30;67758;39.572;2.652;2024-01-30T03:37:35;11.15;89.03
68450;SHT30;67758;39.572;2.652;2024-01-30T03:40:02;11.07;88.75
68450;SHT30;67758;39.572;2.652;2024-01-30T03:42:27;11.06;88.65
68450;SHT30;67758;39.572;2.652;2024-01-30T03:44:53;11.05;88.42
68450;SHT30;67758;39.572;2.652;2024-01-30T03:47:21;11.02;88.28
68450;SHT30;67758;39.572;2.652;2024-01-30T03:49:46;11.05;88.29
68450;SHT30;67758;39.572;2.652;2024-01-30T03:52:12;11.05;88.33
68450;SHT30;67758;39.572;2.652;2024-01-30T03:54:38;11.06;88.39
68450;SHT30;67758;39.572;2.652;2024-01-30T03:57:04;11.06;88.29
68450;SHT30;67758;39.572;2.652;2024-01-30T03:59:29;11.06;88.13
68450;SHT30;67758;39.572;2.652;2024-01-30T04:01:55;11.05;88.11
68450;SHT30;67758;39.572;2.652;2024-01-30T04:04:20;11.09;88.18
68450;SHT30;67758;39.572;2.652;2024-01-30T04:06:46;11.07;87.87
68450;SHT30;67758;39.572;2.652;2024-01-30T04:09:14;11.13;87.71
68450;SHT30;67758;39.572;2.652;2024-01-30T04:11:41;11.16;87.50
68450;SHT30;67758;39.572;2.652;2024-01-30T04:14:10;11.24;87.55
68450;SHT30;67758;39.572;2.652;2024-01-30T04:16:36;11.23;87.13
68450;SHT30;67758;39.572;2.652;2024-01-30T04:19:02;11.23;87.17
68450;SHT30;67758;39.572;2.652;2024-01-30T04:21:27;11.23;87.22
68450;SHT30;67758;39.572;2.652;2024-01-30T04:23:53;11.26;87.13
68450;SHT30;67758;39.572;2.652;2024-01-30T04:26:19;11.27;87.06
68450;SHT30;67758;39.572;2.652;2024-01-30T04:28:45;11.27;87.00
68450;SHT30;67758;39.572;2.652;2024-01-30T04:31:11;11.28;87.02
68450;SHT30;67758;39.572;2.652;2024-01-30T04:33:37;11.30;87.06
68450;SHT30;67758;39.572;2.652;2024-01-30T04:36:03;11.28;87.21
68450;SHT30;67758;39.572;2.652;2024-01-30T04:38:29;11.31;87.05
68450;SHT30;67758;39.572;2.652;2024-01-30T04:40:54;11.33;87.13
68450;SHT30;67758;39.572;2.652;2024-01-30T04:43:20;11.33;87.30
68450;SHT30;67758;39.572;2.652;2024-01-30T04:45:47;11.36;87.30
68450;SHT30;67758;39.572;2.652;2024-01-30T04:48:12;11.36;87.19
68450;SHT30;67758;39.572;2.652;2024-01-30T04:50:38;11.36;87.08
68450;SHT30;67758;39.572;2.652;2024-01-30T04:53:03;11.34;87.08
68450;SHT30;67758;39.572;2.652;2024-01-30T04:55:29;11.33;87.17
68450;SHT30;67758;39.572;2.652;2024-01-30T04:57:54;11.28;87.22
68450;SHT30;67758;39.572;2.652;2024-01-30T05:00:20;11.28;87.32
68450;SHT30;67758;39.572;2.652;2024-01-30T05:02:46;11.27;87.34
68450;SHT30;67758;39.572;2.652;2024-01-30T05:05:11;11.34;87.28
68450;SHT30;67758;39.572;2.652;2024-01-30T05:07:40;11.31;87.45
68450;SHT30;67758;39.572;2.652;2024-01-30T05:10:06;11.34;87.42
68450;SHT30;67758;39.572;2.652;2024-01-30T05:12:32;11.36;87.42
68450;SHT30;67758;39.572;2.652;2024-01-30T05:14:57;11.38;87.37
68450;SHT30;67758;39.572;2.652;2024-01-30T05:17:23;11.38;87.34
68450;SHT30;67758;39.572;2.652;2024-01-30T05:19:48;11.40;87.44
68450;SHT30;67758;39.572;2.652;2024-01-30T05:22:14;11.37;87.48
68450;SHT30;67758;39.572;2.652;2024-01-30T05:24:41;11.40;87.36
68450;SHT30;67758;39.572;2.652;2024-01-30T05:27:08;11.43;87.38
68450;SHT30;67758;39.572;2.652;2024-01-30T05:29:33;11.50;87.35
68450;SHT30;67758;39.572;2.652;2024-01-30T05:31:59;11.40;87.18
68450;SHT30;67758;39.572;2.652;2024-01-30T05:34:24;11.34;87.42
68450;SHT30;67758;39.572;2.652;2024-01-30T05:36:50;11.31;87.38
68450;SHT30;67758;39.572;2.652;2024-01-30T05:39:16;11.33;87.28
68450;SHT30;67758;39.572;2.652;2024-01-30T05:41:41;11.31;87.40
68450;SHT30;67758;39.572;2.652;2024-01-30T05:44:07;11.37;87.31
68450;SHT30;67758;39.572;2.652;2024-01-30T05:46:33;11.37;87.20
68450;SHT30;67758;39.572;2.652;2024-01-30T05:48:59;11.48;87.59
68450;SHT30;67758;39.572;2.652;2024-01-30T05:51:24;11.46;87.05
68450;SHT30;67758;39.572;2.652;2024-01-30T05:53:50;11.46;87.03
68450;SHT30;67758;39.572;2.652;2024-01-30T05:56:16;11.43;87.09
68450;SHT30;67758;39.572;2.652;2024-01-30T05:58:41;11.48;86.90
68450;SHT30;67758;39.572;2.652;2024-01-30T06:01:08;11.50;86.80
68450;SHT30;67758;39.572;2.652;2024-01-30T06:03:35;11.54;86.65
68450;SHT30;67758;39.572;2.652;2024-01-30T06:06:00;11.66;86.41
68450;SHT30;67758;39.572;2.652;2024-01-30T06:08:26;11.73;86.09
68450;SHT30;67758;39.572;2.652;2024-01-30T06:10:52;11.77;85.98
68450;SHT30;67758;39.572;2.652;2024-01-30T06:13:17;11.77;85.97
68450;SHT30;67758;39.572;2.652;2024-01-30T06:15:43;11.81;85.85
68450;SHT30;67758;39.572;2.652;2024-01-30T06:18:09;11.82;85.76
68450;SHT30;67758;39.572;2.652;2024-01-30T06:20:34;11.91;85.83
68450;SHT30;67758;39.572;2.652;2024-01-30T06:23:00;11.88;85.49
68450;SHT30;67758;39.572;2.652;2024-01-30T06:25:26;11.92;85.51
68450;SHT30;67758;39.572;2.652;2024-01-30T06:27:51;11.89;85.41
68450;SHT30;67758;39.572;2.652;2024-01-30T06:30:17;11.89;85.40
68450;SHT30;67758;39.572;2.652;2024-01-30T06:32:43;12.05;85.45
68450;SHT30;67758;39.572;2.652;2024-01-30T06:35:12;12.05;85.05
68450;SHT30;67758;39.572;2.652;2024-01-30T06:37:38;12.04;85.13
68450;SHT30;67758;39.572;2.652;2024-01-30T06:40:04;12.05;84.80
68450;SHT30;67758;39.572;2.652;2024-01-30T06:42:30;12.01;84.85
68450;SHT30;67758;39.572;2.652;2024-01-30T06:44:56;11.99;84.83
68450;SHT30;67758;39.572;2.652;2024-01-30T06:47:21;12.11;84.68
68450;SHT30;67758;39.572;2.652;2024-01-30T06:49:47;12.04;84.48
68450;SHT30;67758;39.572;2.652;2024-01-30T06:52:13;12.05;84.70
68450;SHT30;67758;39.572;2.652;2024-01-30T06:54:39;11.99;84.72
68450;SHT30;67758;39.572;2.652;2024-01-30T06:57:05;11.97;84.85
68450;SHT30;67758;39.572;2.652;2024-01-30T06:59:34;11.94;84.90
68450;SHT30;67758;39.572;2.652;2024-01-30T07:02:00;11.95;84.80
68450;SHT30;67758;39.572;2.652;2024-01-30T07:04:26;11.99;84.79
68450;SHT30;67758;39.572;2.652;2024-01-30T07:06:51;12.11;84.81
68450;SHT30;67758;39.572;2.652;2024-01-30T07:09:18;12.08;84.55
68450;SHT30;67758;39.572;2.652;2024-01-30T07:11:44;12.14;84.50
68450;SHT30;67758;39.572;2.652;2024-01-30T07:14:10;12.18;84.43
68450;SHT30;67758;39.572;2.652;2024-01-30T07:16:36;12.19;84.33
68450;SHT30;67758;39.572;2.652;2024-01-30T07:19:01;12.22;84.31
68450;SHT30;67758;39.572;2.652;2024-01-30T07:21:27;12.26;84.23
68450;SHT30;67758;39.572;2.652;2024-01-30T07:23:54;12.25;84.15
68450;SHT30;67758;39.572;2.652;2024-01-30T07:26:20;12.26;84.12
68450;SHT30;67758;39.572;2.652;2024-01-30T07:28:46;12.32;84.05
68450;SHT30;67758;39.572;2.652;2024-01-30T07:31:11;12.32;84.01
68450;SHT30;67758;39.572;2.652;2024-01-30T07:33:37;12.39;84.04
68450;SHT30;67758;39.572;2.652;2024-01-30T07:36:03;12.46;83.79
68450;SHT30;67758;39.572;2.652;2024-01-30T07:38:31;12.52;83.69
68450;SHT30;67758;39.572;2.652;2024-01-30T07:40:57;12.52;83.60
68450;SHT30;67758;39.572;2.652;2024-01-30T07:43:22;12.52;83.66
68450;SHT30;67758;39.572;2.652;2024-01-30T07:45:48;12.53;83.62
68450;SHT30;67758;39.572;2.652;2024-01-30T07:48:13;12.62;83.49
68450;SHT30;67758;39.572;2.652;2024-01-30T07:50:39;12.62;83.44
68450;SHT30;67758;39.572;2.652;2024-01-30T07:53:05;12.75;83.23
68450;SHT30;67758;39.572;2.652;2024-01-30T07:55:30;12.76;83.20
68450;SHT30;67758;39.572;2.652;2024-01-30T07:57:57;12.77;83.16
68450;SHT30;67758;39.572;2.652;2024-01-30T08:00:24;12.80;83.11
68450;SHT30;67758;39.572;2.652;2024-01-30T08:02:53;12.94;83.03
68450;SHT30;67758;39.572;2.652;2024-01-30T08:05:21;12.99;82.79
68450;SHT30;67758;39.572;2.652;2024-01-30T08:07:48;13.03;82.51
68450;SHT30;67758;39.572;2.652;2024-01-30T08:10:14;13.10;82.24
68450;SHT30;67758;39.572;2.652;2024-01-30T08:12:40;13.24;81.92
68450;SHT30;67758;39.572;2.652;2024-01-30T08:15:06;13.31;81.64
68450;SHT30;67758;39.572;2.652;2024-01-30T08:17:31;13.42;81.30
68450;SHT30;67758;39.572;2.652;2024-01-30T08:19:57;13.34;81.30
68450;SHT30;67758;39.572;2.652;2024-01-30T08:22:23;13.42;81.20
68450;SHT30;67758;39.572;2.652;2024-01-30T08:24:48;13.48;80.87
68450;SHT30;67758;39.572;2.652;2024-01-30T08:27:14;13.66;80.67
68450;SHT30;67758;39.572;2.652;2024-01-30T08:29:40;13.69;80.29
68450;SHT30;67758;39.572;2.652;2024-01-30T08:32:06;13.83;80.09
68450;SHT30;67758;39.572;2.652;2024-01-30T08:34:32;13.78;80.18
68450;SHT30;67758;39.572;2.652;2024-01-30T08:36:57;13.81;79.94
68450;SHT30;67758;39.572;2.652;2024-01-30T08:39:23;13.92;79.82
68450;SHT30;67758;39.572;2.652;2024-01-30T08:41:49;14.01;79.55
68450;SHT30;67758;39.572;2.652;2024-01-30T08:44:14;14.13;79.43
68450;SHT30;67758;39.572;2.652;2024-01-30T08:46:40;14.19;79.33
68450;SHT30;67758;39.572;2.652;2024-01-30T08:49:05;14.16;79.34
68450;SHT30;67758;39.572;2.652;2024-01-30T08:51:31;14.19;79.51
68450;SHT30;67758;39.572;2.652;2024-01-30T08:53:56;14.37;78.96
68450;SHT30;67758;39.572;2.652;2024-01-30T08:56:22;14.53;78.77
68450;SHT30;67758;39.572;2.652;2024-01-30T08:58:48;14.73;78.62
68450;SHT30;67758;39.572;2.652;2024-01-30T09:01:14;14.89;77.68
68450;SHT30;67758;39.572;2.652;2024-01-30T09:03:39;14.80;77.25
68450;SHT30;67758;39.572;2.652;2024-01-30T09:06:10;14.61;77.80
68450;SHT30;67758;39.572;2.652;2024-01-30T09:08:35;14.59;78.01
68450;SHT30;67758;39.572;2.652;2024-01-30T09:11:08;14.63;78.16
68450;SHT30;67758;39.572;2.652;2024-01-30T09:13:34;14.97;77.84
68450;SHT30;67758;39.572;2.652;2024-01-30T09:15:59;15.11;77.32
68450;SHT30;67758;39.572;2.652;2024-01-30T09:18:25;15.15;76.82
68450;SHT30;67758;39.572;2.652;2024-01-30T09:20:51;15.38;76.39
68450;SHT30;67758;39.572;2.652;2024-01-30T09:23:16;15.55;75.92
68450;SHT30;67758;39.572;2.652;2024-01-30T09:25:44;15.40;76.01
68450;SHT30;67758;39.572;2.652;2024-01-30T09:28:09;15.50;75.53
68450;SHT30;67758;39.572;2.652;2024-01-30T09:30:35;15.43;75.52
68450;SHT30;67758;39.572;2.652;2024-01-30T09:33:00;15.91;74.94
68450;SHT30;67758;39.572;2.652;2024-01-30T09:35:26;15.71;74.95
68450;SHT30;67758;39.572;2.652;2024-01-30T09:37:52;16.03;74.56
68450;SHT30;67758;39.572;2.652;2024-01-30T09:40:18;16.28;74.13
68450;SHT30;67758;39.572;2.652;2024-01-30T09:42:47;16.45;73.60
68450;SHT30;67758;39.572;2.652;2024-01-30T09:45:17;16.47;72.95
68450;SHT30;67758;39.572;2.652;2024-01-30T09:47:44;16.71;72.17
68450;SHT30;67758;39.572;2.652;2024-01-30T09:50:11;16.78;71.70
68450;SHT30;67758;39.572;2.652;2024-01-30T09:52:37;17.13;71.00
68450;SHT30;67758;39.572;2.652;2024-01-30T09:55:04;17.23;70.45
68450;SHT30;67758;39.572;2.652;2024-01-30T09:57:30;17.26;70.17
68450;SHT30;67758;39.572;2.652;2024-01-30T09:59:55;17.19;70.24
68450;SHT30;67758;39.572;2.652;2024-01-30T10:02:22;17.20;70.10
68450;SHT30;67758;39.572;2.652;2024-01-30T10:04:52;17.42;69.36
68450;SHT30;67758;39.572;2.652;2024-01-30T10:07:18;17.15;69.53
68450;SHT30;67758;39.572;2.652;2024-01-30T10:09:44;16.96;69.94
68450;SHT30;67758;39.572;2.652;2024-01-30T10:12:10;16.88;70.17
68450;SHT30;67758;39.572;2.652;2024-01-30T10:14:39;16.82;70.15
68450;SHT30;67758;39.572;2.652;2024-01-30T10:17:07;17.01;70.07
68450;SHT30;67758;39.572;2.652;2024-01-30T10:19:33;17.24;69.83
68450;SHT30;67758;39.572;2.652;2024-01-30T10:22:00;17.33;69.15
68450;SHT30;67758;39.572;2.652;2024-01-30T10:24:26;17.03;69.69
68450;SHT30;67758;39.572;2.652;2024-01-30T10:26:53;17.03;69.97
68450;SHT30;67758;39.572;2.652;2024-01-30T10:29:18;17.16;69.65
68450;SHT30;67758;39.572;2.652;2024-01-30T10:31:44;16.73;70.48
68450;SHT30;67758;39.572;2.652;2024-01-30T10:34:10;17.03;70.22
68450;SHT30;67758;39.572;2.652;2024-01-30T10:36:40;17.02;70.20
68450;SHT30;67758;39.572;2.652;2024-01-30T10:39:09;17.53;69.20
68450;SHT30;67758;39.572;2.652;2024-01-30T10:41:43;17.62;68.78
68450;SHT30;67758;39.572;2.652;2024-01-30T10:44:10;17.88;67.73
68450;SHT30;67758;39.572;2.652;2024-01-30T10:46:38;18.97;65.47
68450;SHT30;67758;39.572;2.652;2024-01-30T10:49:04;19.34;63.30
68450;SHT30;67758;39.572;2.652;2024-01-30T10:51:31;18.97;64.80
68450;SHT30;67758;39.572;2.652;2024-01-30T10:53:57;19.89;62.07
68450;SHT30;67758;39.572;2.652;2024-01-30T10:56:24;20.18;61.64
68450;SHT30;67758;39.572;2.652;2024-01-30T10:58:53;20.85;59.64
68450;SHT30;67758;39.572;2.652;2024-01-30T11:01:22;20.53;59.88
68450;SHT30;67758;39.572;2.652;2024-01-30T11:03:52;21.02;59.34
68450;SHT30;67758;39.572;2.652;2024-01-30T11:06:18;20.66;59.89
68450;SHT30;67758;39.572;2.652;2024-01-30T11:08:59;20.49;60.69
68450;SHT30;67758;39.572;2.652;2024-01-30T11:11:25;19.96;61.33
68450;SHT30;67758;39.572;2.652;2024-01-30T11:13:51;21.05;59.60
68450;SHT30;67758;39.572;2.652;2024-01-30T11:16:17;21.12;58.57
68450;SHT30;67758;39.572;2.652;2024-01-30T11:18:42;21.88;56.32
68450;SHT30;67758;39.572;2.652;2024-01-30T11:21:08;20.16;60.12
68450;SHT30;67758;39.572;2.652;2024-01-30T11:23:34;19.78;61.57
68450;SHT30;67758;39.572;2.652;2024-01-30T11:26:01;21.99;57.75
68450;SHT30;67758;39.572;2.652;2024-01-30T11:28:33;22.46;55.29
68450;SHT30;67758;39.572;2.652;2024-01-30T11:31:07;22.60;55.23
68450;SHT30;67758;39.572;2.652;2024-01-30T11:33:33;21.69;56.24
68450;SHT30;67758;39.572;2.652;2024-01-30T11:36:00;22.26;55.02
68450;SHT30;67758;39.572;2.652;2024-01-30T11:38:27;22.14;55.91
68450;SHT30;67758;39.572;2.652;2024-01-30T11:40:54;22.48;54.37
68450;SHT30;67758;39.572;2.652;2024-01-30T11:43:21;21.72;56.27
68450;SHT30;67758;39.572;2.652;2024-01-30T11:45:51;20.83;58.93
68450;SHT30;67758;39.572;2.652;2024-01-30T11:48:17;22.00;56.56
68450;SHT30;67758;39.572;2.652;2024-01-30T11:50:43;22.14;55.83
68450;SHT30;67758;39.572;2.652;2024-01-30T11:53:12;21.56;56.52
68450;SHT30;67758;39.572;2.652;2024-01-30T11:55:38;21.27;57.83
68450;SHT30;67758;39.572;2.652;2024-01-30T11:58:04;22.27;55.56
68450;SHT30;67758;39.572;2.652;2024-01-30T12:00:30;22.87;54.19
68450;SHT30;67758;39.572;2.652;2024-01-30T12:02:59;22.55;54.78
68450;SHT30;67758;39.572;2.652;2024-01-30T12:05:27;22.14;54.11
68450;SHT30;67758;39.572;2.652;2024-01-30T12:07:53;22.58;53.73
68450;SHT30;67758;39.572;2.652;2024-01-30T12:10:19;23.62;51.93
68450;SHT30;67758;39.572;2.652;2024-01-30T12:12:55;21.88;55.20
68450;SHT30;67758;39.572;2.652;2024-01-30T12:15:24;20.84;57.78
68450;SHT30;67758;39.572;2.652;2024-01-30T12:17:50;22.27;55.18
68450;SHT30;67758;39.572;2.652;2024-01-30T12:20:19;22.55;54.31
68450;SHT30;67758;39.572;2.652;2024-01-30T12:22:47;21.46;56.52
68450;SHT30;67758;39.572;2.652;2024-01-30T12:25:18;22.00;55.09
68450;SHT30;67758;39.572;2.652;2024-01-30T12:27:46;21.99;55.99
68450;SHT30;67758;39.572;2.652;2024-01-30T12:30:13;23.15;52.82
68450;SHT30;67758;39.572;2.652;2024-01-30T12:32:43;22.02;55.18
68450;SHT30;67758;39.572;2.652;2024-01-30T12:35:13;23.14;52.95
68450;SHT30;67758;39.572;2.652;2024-01-30T12:37:40;24.24;50.68
68450;SHT30;67758;39.572;2.652;2024-01-30T12:40:07;23.57;51.79
68450;SHT30;67758;39.572;2.652;2024-01-30T12:42:33;24.11;50.59
68450;SHT30;67758;39.572;2.652;2024-01-30T12:44:59;24.57;50.01
68450;SHT30;67758;39.572;2.652;2024-01-30T12:47:25;24.82;49.02
68450;SHT30;67758;39.572;2.652;2024-01-30T12:49:51;25.16;48.21
68450;SHT30;67758;39.572;2.652;2024-01-30T12:52:20;24.13;50.96
68450;SHT30;67758;39.572;2.652;2024-01-30T12:54:49;22.13;54.57
68450;SHT30;67758;39.572;2.652;2024-01-30T12:57:16;22.72;53.79
68450;SHT30;67758;39.572;2.652;2024-01-30T12:59:42;23.09;53.08
68450;SHT30;67758;39.572;2.652;2024-01-30T13:02:10;23.18;52.31
68450;SHT30;67758;39.572;2.652;2024-01-30T13:04:36;23.30;52.45
68450;SHT30;67758;39.572;2.652;2024-01-30T13:07:02;22.98;53.26
68450;SHT30;67758;39.572;2.652;2024-01-30T13:09:29;22.77;53.66
68450;SHT30;67758;39.572;2.652;2024-01-30T13:11:55;22.74;53.99
68450;SHT30;67758;39.572;2.652;2024-01-30T13:14:20;22.77;53.78
68450;SHT30;67758;39.572;2.652;2024-01-30T13:16:46;22.41;54.38
68450;SHT30;67758;39.572;2.652;2024-01-30T13:19:12;22.17;54.86
68450;SHT30;67758;39.572;2.652;2024-01-30T13:21:37;22.09;55.46
68450;SHT30;67758;39.572;2.652;2024-01-30T13:24:04;21.89;55.92
68450;SHT30;67758;39.572;2.652;2024-01-30T13:26:32;21.81;56.26
68450;SHT30;67758;39.572;2.652;2024-01-30T13:28:58;21.59;56.75
68450;SHT30;67758;39.572;2.652;2024-01-30T13:31:23;21.62;56.63
68450;SHT30;67758;39.572;2.652;2024-01-30T13:33:49;21.55;56.67
68450;SHT30;67758;39.572;2.652;2024-01-30T13:36:15;21.28;59.30
68450;SHT30;67758;39.572;2.652;2024-01-30T13:38:40;21.39;60.32
68450;SHT30;67758;39.572;2.652;2024-01-30T13:41:07;20.90;61.70
68450;SHT30;67758;39.572;2.652;2024-01-30T13:43:33;20.79;62.80
68450;SHT30;67758;39.572;2.652;2024-01-30T13:45:59;20.32;63.71
68450;SHT30;67758;39.572;2.652;2024-01-30T13:48:24;19.88;64.24
68450;SHT30;67758;39.572;2.652;2024-01-30T13:50:50;19.67;64.98
68450;SHT30;67758;39.572;2.652;2024-01-30T13:53:16;19.16;66.24
68450;SHT30;67758;39.572;2.652;2024-01-30T13:55:41;19.08;66.97
68450;SHT30;67758;39.572;2.652;2024-01-30T13:58:07;19.59;65.30
68450;SHT30;67758;39.572;2.652;2024-01-30T14:00:33;20.00;64.16
68450;SHT30;67758;39.572;2.652;2024-01-30T14:02:59;20.36;63.58
68450;SHT30;67758;39.572;2.652;2024-01-30T14:05:26;20.71;62.82
68450;SHT30;67758;39.572;2.652;2024-01-30T14:07:53;20.93;62.70
68450;SHT30;67758;39.572;2.652;2024-01-30T14:10:18;21.00;62.13
68450;SHT30;67758;39.572;2.652;2024-01-30T14:12:44;21.04;62.07
68450;SHT30;67758;39.572;2.652;2024-01-30T14:15:10;21.31;61.59
68450;SHT30;67758;39.572;2.652;2024-01-30T14:17:38;20.70;62.58
68450;SHT30;67758;39.572;2.652;2024-01-30T14:20:03;20.69;62.69
68450;SHT30;67758;39.572;2.652;2024-01-30T14:22:30;20.57;63.23
68450;SHT30;67758;39.572;2.652;2024-01-30T14:24:56;20.71;62.42
68450;SHT30;67758;39.572;2.652;2024-01-30T14:27:22;20.54;63.12
68450;SHT30;67758;39.572;2.652;2024-01-30T14:29:48;20.49;62.83
68450;SHT30;67758;39.572;2.652;2024-01-30T14:32:13;19.99;64.13
68450;SHT30;67758;39.572;2.652;2024-01-30T14:34:39;19.69;65.40
68450;SHT30;67758;39.572;2.652;2024-01-30T14:37:05;19.83;65.50
68450;SHT30;67758;39.572;2.652;2024-01-30T14:39:30;19.35;66.58
68450;SHT30;67758;39.572;2.652;2024-01-30T14:41:57;18.76;68.69
68450;SHT30;67758;39.572;2.652;2024-01-30T14:44:23;18.49;69.06
68450;SHT30;67758;39.572;2.652;2024-01-30T14:46:50;18.39;69.29
68450;SHT30;67758;39.572;2.652;2024-01-30T14:49:17;18.85;67.65
68450;SHT30;67758;39.572;2.652;2024-01-30T14:51:43;18.36;69.05
68450;SHT30;67758;39.572;2.652;2024-01-30T14:54:08;18.21;69.25
68450;SHT30;67758;39.572;2.652;2024-01-30T14:56:34;18.55;68.98
68450;SHT30;67758;39.572;2.652;2024-01-30T14:59:00;18.99;67.68
68450;SHT30;67758;39.572;2.652;2024-01-30T15:01:25;18.41;68.89
68450;SHT30;67758;39.572;2.652;2024-01-30T15:03:51;18.24;69.59
68450;SHT30;67758;39.572;2.652;2024-01-30T15:06:17;18.63;68.10
68450;SHT30;67758;39.572;2.652;2024-01-30T15:08:43;18.56;68.46
68450;SHT30;67758;39.572;2.652;2024-01-30T15:11:10;18.46;68.88
68450;SHT30;67758;39.572;2.652;2024-01-30T15:13:35;19.28;66.94
68450;SHT30;67758;39.572;2.652;2024-01-30T15:16:02;19.41;66.02
68450;SHT30;67758;39.572;2.652;2024-01-30T15:18:30;19.47;65.85
68450;SHT30;67758;39.572;2.652;2024-01-30T15:20:56;19.78;65.40
68450;SHT30;67758;39.572;2.652;2024-01-30T15:23:22;19.54;66.35